sensor_id;sensor_type;location;lat;lon;timestamp;temperature;humidity
69533;DHT22;56729;52.036;5.332;2023-10-08T00:01:02;18.30;99.90
69533;DHT22;56729;52.036;5.332;2023-10-08T00:02:05;18.30;99.90
69533;DHT22;56729;52.036;5.332;2023-10-08T00:03:07;18.30;99.90
69533;DHT22;56729;52.036;5.332;2023-10-08T00:04:11;18.30;99.90
69533;DHT22;56729;52.036;5.332;2023-10-08T00:05:13;18.30;99.90
69533;DHT22;56729;52.036;5.332;2023-10-08T00:06:19;18.30;99.90
69533;DHT22;56729;52.036;5.332;2023-10-08T00:07:22;18.30;99.90
69533;DHT22;56729;52.036;5.332;2023-10-08T00:08:25;18.30;99.90
69533;DHT22;56729;52.036;5.332;2023-10-08T00:09:27;18.30;99.90
69533;DHT22;56729;52.036;5.332;2023-10-08T00:10:38;18.30;99.90
69533;DHT22;56729;52.036;5.332;2023-10-08T00:11:41;18.20;99.90
69533;DHT22;56729;52.036;5.332;2023-10-08T00:12:44;18.30;99.90
69533;DHT22;56729;52.036;5.332;2023-10-08T00:13:49;18.20;99.90
69533;DHT22;56729;52.036;5.332;2023-10-08T00:14:51;18.20;99.90
69533;DHT22;56729;52.036;5.332;2023-10-08T00:15:55;18.20;99.90
69533;DHT22;56729;52.036;5.332;2023-10-08T00:16:59;18.20;99.90
69533;DHT22;56729;52.036;5.332;2023-10-08T00:18:05;18.20;99.90
69533;DHT22;56729;52.036;5.332;2023-10-08T00:19:07;18.20;99.90
69533;DHT22;56729;52.036;5.332;2023-10-08T00:20:17;18.20;99.90
69533;DHT22;56729;52.036;5.332;2023-10-08T00:21:27;18.20;99.90
69533;DHT22;56729;52.036;5.332;2023-10-08T00:22:30;18.20;99.90
69533;DHT22;56729;52.036;5.332;2023-10-08T00:23:38;18.20;99.90
69533;DHT22;56729;52.036;5.332;2023-10-08T00:24:44;18.20;99.90
69533;DHT22;56729;52.036;5.332;2023-10-08T00:25:48;18.10;99.90
69533;DHT22;56729;52.036;5.332;2023-10-08T00:26:52;18.20;99.90
69533;DHT22;56729;52.036;5.332;2023-10-08T00:27:56;18.10;99.90
69533;DHT22;56729;52.036;5.332;2023-10-08T00:29:04;18.20;99.90
69533;DHT22;56729;52.036;5.332;2023-10-08T00:30:17;18.20;99.90
69533;DHT22;56729;52.036;5.332;2023-10-08T00:31:20;18.10;99.90
69533;DHT22;56729;52.036;5.332;2023-10-08T00:32:25;18.10;99.90
69533;DHT22;56729;52.036;5.332;2023-10-08T00:33:27;18.10;99.90
69533;DHT22;56729;52.036;5.332;2023-10-08T00:34:31;18.10;99.90
69533;DHT22;56729;52.036;5.332;2023-10-08T00:35:37;18.10;99.90
69533;DHT22;56729;52.036;5.332;2023-10-08T00:36:44;18.10;99.90
69533;DHT22;56729;52.036;5.332;2023-10-08T00:37:46;18.10;99.90
69533;DHT22;56729;52.036;5.332;2023-10-08T00:38:50;18.10;99.90
69533;DHT22;56729;52.036;5.332;2023-10-08T00:40:00;18.10;99.90
69533;DHT22;56729;52.036;5.332;2023-10-08T00:41:06;18.10;99.90
69533;DHT22;56729;52.036;5.332;2023-10-08T00:42:09;18.00;99.90
69533;DHT22;56729;52.036;5.332;2023-10-08T00:43:34;18.00;99.90
69533;DHT22;56729;52.036;5.332;2023-10-08T00:44:36;18.00;99.90
69533;DHT22;56729;52.036;5.332;2023-10-08T00:45:50;18.00;99.90
69533;DHT22;56729;52.036;5.332;2023-10-08T00:46:52;18.00;99.90
69533;DHT22;56729;52.036;5.332;2023-10-08T00:47:55;18.00;99.90
69533;DHT22;56729;52.036;5.332;2023-10-08T00:49:01;17.90;99.90
69533;DHT22;56729;52.036;5.332;2023-10-08T00:50:26;18.00;99.90
69533;DHT22;56729;52.036;5.332;2023-10-08T00:51:44;17.90;99.90
69533;DHT22;56729;52.036;5.332;2023-10-08T00:52:50;17.90;99.90
69533;DHT22;56729;52.036;5.332;2023-10-08T00:54:03;17.90;99.90
69533;DHT22;56729;52.036;5.332;2023-10-08T00:55:08;17.80;99.90
69533;DHT22;56729;52.036;5.332;2023-10-08T00:56:11;17.80;99.90
69533;DHT22;56729;52.036;5.332;2023-10-08T00:57:18;17.80;99.90
69533;DHT22;56729;52.036;5.332;2023-10-08T00:58:23;17.80;99.90
69533;DHT22;56729;52.036;5.332;2023-10-08T00:59:29;17.80;99.90
69533;DHT22;56729;52.036;5.332;2023-10-08T01:00:35;17.70;99.90
69533;DHT22;56729;52.036;5.332;2023-10-08T01:01:44;17.70;99.90
69533;DHT22;56729;52.036;5.332;2023-10-08T01:02:53;17.70;99.90
69533;DHT22;56729;52.036;5.332;2023-10-08T01:04:03;17.70;99.90
69533;DHT22;56729;52.036;5.332;2023-10-08T01:05:14;17.60;99.90
69533;DHT22;56729;52.036;5.332;2023-10-08T01:06:20;17.60;99.90
69533;DHT22;56729;52.036;5.332;2023-10-08T01:07:23;17.60;99.90
69533;DHT22;56729;52.036;5.332;2023-10-08T01:08:27;17.60;99.90
69533;DHT22;56729;52.036;5.332;2023-10-08T01:09:39;17.60;99.90
69533;DHT22;56729;52.036;5.332;2023-10-08T01:10:44;17.60;99.90
69533;DHT22;56729;52.036;5.332;2023-10-08T01:12:10;17.60;99.90
69533;DHT22;56729;52.036;5.332;2023-10-08T01:13:24;17.60;99.90
69533;DHT22;56729;52.036;5.332;2023-10-08T01:14:28;17.60;99.90
69533;DHT22;56729;52.036;5.332;2023-10-08T01:15:34;17.70;99.90
69533;DHT22;56729;52.036;5.332;2023-10-08T01:16:38;17.70;99.90
69533;DHT22;56729;52.036;5.332;2023-10-08T01:17:43;17.70;99.90
69533;DHT22;56729;52.036;5.332;2023-10-08T01:19:00;17.70;99.90
69533;DHT22;56729;52.036;5.332;2023-10-08T01:20:02;17.80;99.90
69533;DHT22;56729;52.036;5.332;2023-10-08T01:21:22;17.70;99.90
69533;DHT22;56729;52.036;5.332;2023-10-08T01:22:36;17.70;99.90
69533;DHT22;56729;52.036;5.332;2023-10-08T01:23:41;17.70;99.90
69533;DHT22;56729;52.036;5.332;2023-10-08T01:24:45;17.70;99.90
69533;DHT22;56729;52.036;5.332;2023-10-08T01:25:51;17.60;99.90
69533;DHT22;56729;52.036;5.332;2023-10-08T01:26:54;17.60;99.90
69533;DHT22;56729;52.036;5.332;2023-10-08T01:27:58;17.60;99.90
69533;DHT22;56729;52.036;5.332;2023-10-08T01:29:10;17.70;99.90
69533;DHT22;56729;52.036;5.332;2023-10-08T01:30:21;17.60;99.90
69533;DHT22;56729;52.036;5.332;2023-10-08T01:31:23;17.60;99.90
69533;DHT22;56729;52.036;5.332;2023-10-08T01:32:25;17.70;99.90
69533;DHT22;56729;52.036;5.332;2023-10-08T01:33:27;17.60;99.90
69533;DHT22;56729;52.036;5.332;2023-10-08T01:34:33;17.70;99.90
69533;DHT22;56729;52.036;5.332;2023-10-08T01:35:39;17.70;99.90
69533;DHT22;56729;52.036;5.332;2023-10-08T01:36:41;17.70;99.90
69533;DHT22;56729;52.036;5.332;2023-10-08T01:37:46;17.70;99.90
69533;DHT22;56729;52.036;5.332;2023-10-08T01:38:50;17.70;99.90
69533;DHT22;56729;52.036;5.332;2023-10-08T01:39:52;17.70;99.90
69533;DHT22;56729;52.036;5.332;2023-10-08T01:40:53;17.70;99.90
69533;DHT22;56729;52.036;5.332;2023-10-08T01:41:57;17.70;99.90
69533;DHT22;56729;52.036;5.332;2023-10-08T01:43:00;17.70;99.90
69533;DHT22;56729;52.036;5.332;2023-10-08T01:44:02;17.60;99.90
69533;DHT22;56729;52.036;5.332;2023-10-08T01:45:09;17.70;99.90
69533;DHT22;56729;52.036;5.332;2023-10-08T01:46:14;17.60;99.90
69533;DHT22;56729;52.036;5.332;2023-10-08T01:47:18;17.70;99.90
69533;DHT22;56729;52.036;5.332;2023-10-08T01:48:21;17.70;99.90
69533;DHT22;56729;52.036;5.332;2023-10-08T01:49:30;17.70;99.90
69533;DHT22;56729;52.036;5.332;2023-10-08T01:50:36;17.60;99.90
69533;DHT22;56729;52.036;5.332;2023-10-08T01:51:38;17.60;99.90
69533;DHT22;56729;52.036;5.332;2023-10-08T01:52:41;17.60;99.90
69533;DHT22;56729;52.036;5.332;2023-10-08T01:53:43;17.70;99.90
69533;DHT22;56729;52.036;5.332;2023-10-08T01:54:45;17.70;99.90
69533;DHT22;56729;52.036;5.332;2023-10-08T01:55:47;17.60;99.90
69533;DHT22;56729;52.036;5.332;2023-10-08T01:56:53;17.60;99.90
69533;DHT22;56729;52.036;5.332;2023-10-08T01:57:55;17.60;99.90
69533;DHT22;56729;52.036;5.332;2023-10-08T01:58:58;17.60;99.90
69533;DHT22;56729;52.036;5.332;2023-10-08T02:00:00;17.60;99.90
69533;DHT22;56729;52.036;5.332;2023-10-08T02:01:02;17.60;99.90
69533;DHT22;56729;52.036;5.332;2023-10-08T02:02:07;17.60;99.90
69533;DHT22;56729;52.036;5.332;2023-10-08T02:03:09;17.60;99.90
69533;DHT22;56729;52.036;5.332;2023-10-08T02:04:11;17.60;99.90
69533;DHT22;56729;52.036;5.332;2023-10-08T02:05:14;17.60;99.90
69533;DHT22;56729;52.036;5.332;2023-10-08T02:06:17;17.60;99.90
69533;DHT22;56729;52.036;5.332;2023-10-08T02:07:19;17.60;99.90
69533;DHT22;56729;52.036;5.332;2023-10-08T02:08:22;17.60;99.90
69533;DHT22;56729;52.036;5.332;2023-10-08T02:09:24;17.60;99.90
69533;DHT22;56729;52.036;5.332;2023-10-08T02:10:28;17.70;99.90
69533;DHT22;56729;52.036;5.332;2023-10-08T02:11:31;17.70;99.90
69533;DHT22;56729;52.036;5.332;2023-10-08T02:12:33;17.70;99.90
69533;DHT22;56729;52.036;5.332;2023-10-08T02:13:37;17.70;99.90
69533;DHT22;56729;52.036;5.332;2023-10-08T02:14:41;17.70;99.90
69533;DHT22;56729;52.036;5.332;2023-10-08T02:15:49;17.60;99.90
69533;DHT22;56729;52.036;5.332;2023-10-08T02:16:54;17.60;99.90
69533;DHT22;56729;52.036;5.332;2023-10-08T02:17:58;17.60;99.90
69533;DHT22;56729;52.036;5.332;2023-10-08T02:19:00;17.60;99.90
69533;DHT22;56729;52.036;5.332;2023-10-08T02:20:02;17.50;99.90
69533;DHT22;56729;52.036;5.332;2023-10-08T02:21:07;17.50;99.90
69533;DHT22;56729;52.036;5.332;2023-10-08T02:22:13;17.50;99.90
69533;DHT22;56729;52.036;5.332;2023-10-08T02:23:15;17.50;99.90
69533;DHT22;56729;52.036;5.332;2023-10-08T02:24:17;17.50;99.90
69533;DHT22;56729;52.036;5.332;2023-10-08T02:25:19;17.50;99.90
69533;DHT22;56729;52.036;5.332;2023-10-08T02:26:21;17.50;99.90
69533;DHT22;56729;52.036;5.332;2023-10-08T02:27:22;17.40;99.90
69533;DHT22;56729;52.036;5.332;2023-10-08T02:28:24;17.40;99.90
69533;DHT22;56729;52.036;5.332;2023-10-08T02:29:28;17.40;99.90
69533;DHT22;56729;52.036;5.332;2023-10-08T02:30:31;17.40;99.90
69533;DHT22;56729;52.036;5.332;2023-10-08T02:31:33;17.40;99.90
69533;DHT22;56729;52.036;5.332;2023-10-08T02:32:36;17.40;99.90
69533;DHT22;56729;52.036;5.332;2023-10-08T02:33:44;17.40;99.90
69533;DHT22;56729;52.036;5.332;2023-10-08T02:34:46;17.40;99.90
69533;DHT22;56729;52.036;5.332;2023-10-08T02:35:48;17.30;99.90
69533;DHT22;56729;52.036;5.332;2023-10-08T02:36:51;17.30;99.90
69533;DHT22;56729;52.036;5.332;2023-10-08T02:37:54;17.30;99.90
69533;DHT22;56729;52.036;5.332;2023-10-08T02:38:56;17.30;99.90
69533;DHT22;56729;52.036;5.332;2023-10-08T02:39:58;17.30;99.90
69533;DHT22;56729;52.036;5.332;2023-10-08T02:41:00;17.30;99.90
69533;DHT22;56729;52.036;5.332;2023-10-08T02:42:02;17.40;99.90
69533;DHT22;56729;52.036;5.332;2023-10-08T02:43:04;17.30;99.90
69533;DHT22;56729;52.036;5.332;2023-10-08T02:44:10;17.30;99.90
69533;DHT22;56729;52.036;5.332;2023-10-08T02:45:15;17.30;99.90
69533;DHT22;56729;52.036;5.332;2023-10-08T02:46:18;17.30;99.90
69533;DHT22;56729;52.036;5.332;2023-10-08T02:47:20;17.30;99.90
69533;DHT22;56729;52.036;5.332;2023-10-08T02:48:23;17.30;99.90
69533;DHT22;56729;52.036;5.332;2023-10-08T02:49:25;17.30;99.90
69533;DHT22;56729;52.036;5.332;2023-10-08T02:50:27;17.30;99.90
69533;DHT22;56729;52.036;5.332;2023-10-08T02:51:29;17.30;99.90
69533;DHT22;56729;52.036;5.332;2023-10-08T02:52:32;17.30;99.90
69533;DHT22;56729;52.036;5.332;2023-10-08T02:53:34;17.20;99.90
69533;DHT22;56729;52.036;5.332;2023-10-08T02:54:37;17.20;99.90
69533;DHT22;56729;52.036;5.332;2023-10-08T02:55:39;17.20;99.90
69533;DHT22;56729;52.036;5.332;2023-10-08T02:56:47;17.20;99.90
69533;DHT22;56729;52.036;5.332;2023-10-08T02:57:52;17.20;99.90
69533;DHT22;56729;52.036;5.332;2023-10-08T02:58:54;17.20;99.90
69533;DHT22;56729;52.036;5.332;2023-10-08T02:59:56;17.20;99.90
69533;DHT22;56729;52.036;5.332;2023-10-08T03:00:58;17.20;99.90
69533;DHT22;56729;52.036;5.332;2023-10-08T03:02:02;17.20;99.90
69533;DHT22;56729;52.036;5.332;2023-10-08T03:03:04;17.20;99.90
69533;DHT22;56729;52.036;5.332;2023-10-08T03:04:12;17.20;99.90
69533;DHT22;56729;52.036;5.332;2023-10-08T03:05:20;17.20;99.90
69533;DHT22;56729;52.036;5.332;2023-10-08T03:06:24;17.20;99.90
69533;DHT22;56729;52.036;5.332;2023-10-08T03:07:26;17.20;99.90
69533;DHT22;56729;52.036;5.332;2023-10-08T03:08:35;17.20;99.90
69533;DHT22;56729;52.036;5.332;2023-10-08T03:09:38;17.20;99.90
69533;DHT22;56729;52.036;5.332;2023-10-08T03:10:44;17.10;99.90
69533;DHT22;56729;52.036;5.332;2023-10-08T03:11:46;17.20;99.90
69533;DHT22;56729;52.036;5.332;2023-10-08T03:12:49;17.20;99.90
69533;DHT22;56729;52.036;5.332;2023-10-08T03:13:51;17.10;99.90
69533;DHT22;56729;52.036;5.332;2023-10-08T03:14:54;17.20;99.90
69533;DHT22;56729;52.036;5.332;2023-10-08T03:16:16;17.20;99.90
69533;DHT22;56729;52.036;5.332;2023-10-08T03:17:23;17.20;99.90
69533;DHT22;56729;52.036;5.332;2023-10-08T03:18:25;17.20;99.90
69533;DHT22;56729;52.036;5.332;2023-10-08T03:19:27;17.20;99.90
69533;DHT22;56729;52.036;5.332;2023-10-08T03:20:29;17.20;99.90
69533;DHT22;56729;52.036;5.332;2023-10-08T03:21:33;17.20;99.90
69533;DHT22;56729;52.036;5.332;2023-10-08T03:22:50;17.20;99.90
69533;DHT22;56729;52.036;5.332;2023-10-08T03:23:52;17.20;99.90
69533;DHT22;56729;52.036;5.332;2023-10-08T03:24:59;17.20;99.90
69533;DHT22;56729;52.036;5.332;2023-10-08T03:26:16;17.20;99.90
69533;DHT22;56729;52.036;5.332;2023-10-08T03:27:34;17.20;99.90
69533;DHT22;56729;52.036;5.332;2023-10-08T03:28:43;17.20;99.90
69533;DHT22;56729;52.036;5.332;2023-10-08T03:29:45;17.10;99.90
69533;DHT22;56729;52.036;5.332;2023-10-08T03:30:49;17.10;99.90
69533;DHT22;56729;52.036;5.332;2023-10-08T03:31:53;17.10;99.90
69533;DHT22;56729;52.036;5.332;2023-10-08T03:32:56;17.10;99.90
69533;DHT22;56729;52.036;5.332;2023-10-08T03:34:01;17.10;99.90
69533;DHT22;56729;52.036;5.332;2023-10-08T03:35:03;17.10;99.90
69533;DHT22;56729;52.036;5.332;2023-10-08T03:36:07;17.10;99.90
69533;DHT22;56729;52.036;5.332;2023-10-08T03:37:35;17.10;99.90
69533;DHT22;56729;52.036;5.332;2023-10-08T03:38:43;17.00;99.90
69533;DHT22;56729;52.036;5.332;2023-10-08T03:39:53;17.10;99.90
69533;DHT22;56729;52.036;5.332;2023-10-08T03:41:29;17.10;99.90
69533;DHT22;56729;52.036;5.332;2023-10-08T03:42:34;17.10;99.90
69533;DHT22;56729;52.036;5.332;2023-10-08T03:43:45;17.10;99.90
69533;DHT22;56729;52.036;5.332;2023-10-08T03:45:00;17.10;99.90
69533;DHT22;56729;52.036;5.332;2023-10-08T03:46:12;17.20;99.90
69533;DHT22;56729;52.036;5.332;2023-10-08T03:47:23;17.20;99.90
69533;DHT22;56729;52.036;5.332;2023-10-08T03:48:28;17.20;99.90
69533;DHT22;56729;52.036;5.332;2023-10-08T03:49:38;17.20;99.90
69533;DHT22;56729;52.036;5.332;2023-10-08T03:50:47;17.30;99.90
69533;DHT22;56729;52.036;5.332;2023-10-08T03:51:58;17.30;99.90
69533;DHT22;56729;52.036;5.332;2023-10-08T03:53:00;17.30;99.90
69533;DHT22;56729;52.036;5.332;2023-10-08T03:54:07;17.30;99.90
69533;DHT22;56729;52.036;5.332;2023-10-08T03:55:17;17.30;99.90
69533;DHT22;56729;52.036;5.332;2023-10-08T03:56:28;17.40;99.90
69533;DHT22;56729;52.036;5.332;2023-10-08T03:57:33;17.40;99.90
69533;DHT22;56729;52.036;5.332;2023-10-08T03:58:45;17.40;99.90
69533;DHT22;56729;52.036;5.332;2023-10-08T03:59:48;17.30;99.90
69533;DHT22;56729;52.036;5.332;2023-10-08T04:00:50;17.30;99.90
69533;DHT22;56729;52.036;5.332;2023-10-08T04:02:07;17.30;99.90
69533;DHT22;56729;52.036;5.332;2023-10-08T04:03:16;17.30;99.90
69533;DHT22;56729;52.036;5.332;2023-10-08T04:04:38;17.30;99.90
69533;DHT22;56729;52.036;5.332;2023-10-08T04:05:58;17.30;99.90
69533;DHT22;56729;52.036;5.332;2023-10-08T04:07:20;17.30;99.90
69533;DHT22;56729;52.036;5.332;2023-10-08T04:08:35;17.30;99.90
69533;DHT22;56729;52.036;5.332;2023-10-08T04:09:47;17.30;99.90
69533;DHT22;56729;52.036;5.332;2023-10-08T04:10:50;17.20;99.90
69533;DHT22;56729;52.036;5.332;2023-10-08T04:12:10;17.30;99.90
69533;DHT22;56729;52.036;5.332;2023-10-08T04:13:20;17.30;99.90
69533;DHT22;56729;52.036;5.332;2023-10-08T04:14:24;17.30;99.90
69533;DHT22;56729;52.036;5.332;2023-10-08T04:15:26;17.30;99.90
69533;DHT22;56729;52.036;5.332;2023-10-08T04:16:29;17.20;99.90
69533;DHT22;56729;52.036;5.332;2023-10-08T04:17:31;17.30;99.90
69533;DHT22;56729;52.036;5.332;2023-10-08T04:18:38;17.20;99.90
69533;DHT22;56729;52.036;5.332;2023-10-08T04:19:42;17.30;99.90
69533;DHT22;56729;52.036;5.332;2023-10-08T04:20:44;17.30;99.90
69533;DHT22;56729;52.036;5.332;2023-10-08T04:22:02;17.20;99.90
69533;DHT22;56729;52.036;5.332;2023-10-08T04:23:09;17.20;99.90
69533;DHT22;56729;52.036;5.332;2023-10-08T04:24:27;17.20;99.90
69533;DHT22;56729;52.036;5.332;2023-10-08T04:25:31;17.20;99.90
69533;DHT22;56729;52.036;5.332;2023-10-08T04:26:34;17.20;99.90
69533;DHT22;56729;52.036;5.332;2023-10-08T04:27:36;17.20;99.90
69533;DHT22;56729;52.036;5.332;2023-10-08T04:28:38;17.20;99.90
69533;DHT22;56729;52.036;5.332;2023-10-08T04:29:42;17.20;99.90
69533;DHT22;56729;52.036;5.332;2023-10-08T04:30:44;17.20;99.90
69533;DHT22;56729;52.036;5.332;2023-10-08T04:31:47;17.30;99.90
69533;DHT22;56729;52.036;5.332;2023-10-08T04:32:56;17.30;99.90
69533;DHT22;56729;52.036;5.332;2023-10-08T04:33:59;17.30;99.90
69533;DHT22;56729;52.036;5.332;2023-10-08T04:35:02;17.20;99.90
69533;DHT22;56729;52.036;5.332;2023-10-08T04:36:09;17.30;99.90
69533;DHT22;56729;52.036;5.332;2023-10-08T04:37:11;17.20;99.90
69533;DHT22;56729;52.036;5.332;2023-10-08T04:38:15;17.20;99.90
69533;DHT22;56729;52.036;5.332;2023-10-08T04:39:21;17.20;99.90
69533;DHT22;56729;52.036;5.332;2023-10-08T04:40:25;17.20;99.90
69533;DHT22;56729;52.036;5.332;2023-10-08T04:41:27;17.20;99.90
69533;DHT22;56729;52.036;5.332;2023-10-08T04:42:29;17.10;99.90
69533;DHT22;56729;52.036;5.332;2023-10-08T04:43:31;17.20;99.90
69533;DHT22;56729;52.036;5.332;2023-10-08T04:44:33;17.20;99.90
69533;DHT22;56729;52.036;5.332;2023-10-08T04:45:35;17.10;99.90
69533;DHT22;56729;52.036;5.332;2023-10-08T04:46:40;17.10;99.90
69533;DHT22;56729;52.036;5.332;2023-10-08T04:47:49;17.10;99.90
69533;DHT22;56729;52.036;5.332;2023-10-08T04:48:51;17.10;99.90
69533;DHT22;56729;52.036;5.332;2023-10-08T04:49:54;17.10;99.90
69533;DHT22;56729;52.036;5.332;2023-10-08T04:50:56;17.20;99.90
69533;DHT22;56729;52.036;5.332;2023-10-08T04:52:05;17.10;99.90
69533;DHT22;56729;52.036;5.332;2023-10-08T04:53:15;17.20;99.90
69533;DHT22;56729;52.036;5.332;2023-10-08T04:54:17;17.20;99.90
69533;DHT22;56729;52.036;5.332;2023-10-08T04:55:19;17.20;99.90
69533;DHT22;56729;52.036;5.332;2023-10-08T04:56:30;17.20;99.90
69533;DHT22;56729;52.036;5.332;2023-10-08T04:57:35;17.20;99.90
69533;DHT22;56729;52.036;5.332;2023-10-08T04:58:46;17.10;99.90
69533;DHT22;56729;52.036;5.332;2023-10-08T04:59:49;17.10;99.90
69533;DHT22;56729;52.036;5.332;2023-10-08T05:00:55;17.10;99.90
69533;DHT22;56729;52.036;5.332;2023-10-08T05:02:03;17.10;99.90
69533;DHT22;56729;52.036;5.332;2023-10-08T05:03:24;17.10;99.90
69533;DHT22;56729;52.036;5.332;2023-10-08T05:04:34;17.10;99.90
69533;DHT22;56729;52.036;5.332;2023-10-08T05:05:50;17.10;99.90
69533;DHT22;56729;52.036;5.332;2023-10-08T05:07:12;17.10;99.90
69533;DHT22;56729;52.036;5.332;2023-10-08T05:08:42;17.10;99.90
69533;DHT22;56729;52.036;5.332;2023-10-08T05:10:00;17.10;99.90
69533;DHT22;56729;52.036;5.332;2023-10-08T05:11:04;17.10;99.90
69533;DHT22;56729;52.036;5.332;2023-10-08T05:12:33;17.10;99.90
69533;DHT22;56729;52.036;5.332;2023-10-08T05:13:52;17.20;99.90
69533;DHT22;56729;52.036;5.332;2023-10-08T05:15:05;17.10;99.90
69533;DHT22;56729;52.036;5.332;2023-10-08T05:16:27;17.20;99.90
69533;DHT22;56729;52.036;5.332;2023-10-08T05:17:39;17.10;99.90
69533;DHT22;56729;52.036;5.332;2023-10-08T05:19:08;17.20;99.90
69533;DHT22;56729;52.036;5.332;2023-10-08T05:20:26;17.20;99.90
69533;DHT22;56729;52.036;5.332;2023-10-08T05:21:47;17.20;99.90
69533;DHT22;56729;52.036;5.332;2023-10-08T05:23:09;17.20;99.90
69533;DHT22;56729;52.036;5.332;2023-10-08T05:24:30;17.20;99.90
69533;DHT22;56729;52.036;5.332;2023-10-08T05:25:43;17.20;99.90
69533;DHT22;56729;52.036;5.332;2023-10-08T05:27:00;17.20;99.90
69533;DHT22;56729;52.036;5.332;2023-10-08T05:28:22;17.20;99.90
69533;DHT22;56729;52.036;5.332;2023-10-08T05:29:26;17.20;99.90
69533;DHT22;56729;52.036;5.332;2023-10-08T05:30:51;17.20;99.90
69533;DHT22;56729;52.036;5.332;2023-10-08T05:32:12;17.20;99.90
69533;DHT22;56729;52.036;5.332;2023-10-08T05:33:34;17.30;99.90
69533;DHT22;56729;52.036;5.332;2023-10-08T05:34:54;17.20;99.90
69533;DHT22;56729;52.036;5.332;2023-10-08T05:36:16;17.30;99.90
69533;DHT22;56729;52.036;5.332;2023-10-08T05:37:20;17.30;99.90
69533;DHT22;56729;52.036;5.332;2023-10-08T05:38:42;17.30;99.90
69533;DHT22;56729;52.036;5.332;2023-10-08T05:39:53;17.30;99.90
69533;DHT22;56729;52.036;5.332;2023-10-08T05:41:00;17.20;99.90
69533;DHT22;56729;52.036;5.332;2023-10-08T05:42:02;17.20;99.90
69533;DHT22;56729;52.036;5.332;2023-10-08T05:43:35;17.30;99.90
69533;DHT22;56729;52.036;5.332;2023-10-08T05:44:45;17.20;99.90
69533;DHT22;56729;52.036;5.332;2023-10-08T05:45:54;17.20;99.90
69533;DHT22;56729;52.036;5.332;2023-10-08T05:47:16;17.20;99.90
69533;DHT22;56729;52.036;5.332;2023-10-08T05:48:40;17.10;99.90
69533;DHT22;56729;52.036;5.332;2023-10-08T05:49:50;17.10;99.90
69533;DHT22;56729;52.036;5.332;2023-10-08T05:51:10;17.10;99.90
69533;DHT22;56729;52.036;5.332;2023-10-08T05:52:25;17.10;99.90
69533;DHT22;56729;52.036;5.332;2023-10-08T05:53:29;17.10;99.90
69533;DHT22;56729;52.036;5.332;2023-10-08T05:54:45;17.10;99.90
69533;DHT22;56729;52.036;5.332;2023-10-08T05:56:10;17.00;99.90
69533;DHT22;56729;52.036;5.332;2023-10-08T05:57:30;17.00;99.90
69533;DHT22;56729;52.036;5.332;2023-10-08T05:58:40;17.00;99.90
69533;DHT22;56729;52.036;5.332;2023-10-08T05:59:59;17.00;99.90
69533;DHT22;56729;52.036;5.332;2023-10-08T06:01:02;16.90;99.90
69533;DHT22;56729;52.036;5.332;2023-10-08T06:02:10;16.90;99.90
69533;DHT22;56729;52.036;5.332;2023-10-08T06:03:42;16.90;99.90
69533;DHT22;56729;52.036;5.332;2023-10-08T06:05:10;16.90;99.90
69533;DHT22;56729;52.036;5.332;2023-10-08T06:06:16;16.90;99.90
69533;DHT22;56729;52.036;5.332;2023-10-08T06:07:18;16.80;99.90
69533;DHT22;56729;52.036;5.332;2023-10-08T06:08:35;16.80;99.90
69533;DHT22;56729;52.036;5.332;2023-10-08T06:09:55;16.80;99.90
69533;DHT22;56729;52.036;5.332;2023-10-08T06:11:18;16.80;99.90
69533;DHT22;56729;52.036;5.332;2023-10-08T06:12:46;16.70;99.90
69533;DHT22;56729;52.036;5.332;2023-10-08T06:13:52;16.70;99.90
69533;DHT22;56729;52.036;5.332;2023-10-08T06:14:57;16.60;99.90
69533;DHT22;56729;52.036;5.332;2023-10-08T06:16:13;16.60;99.90
69533;DHT22;56729;52.036;5.332;2023-10-08T06:17:34;16.60;99.90
69533;DHT22;56729;52.036;5.332;2023-10-08T06:18:46;16.50;99.90
69533;DHT22;56729;52.036;5.332;2023-10-08T06:19:48;16.50;99.90
69533;DHT22;56729;52.036;5.332;2023-10-08T06:20:52;16.50;99.90
69533;DHT22;56729;52.036;5.332;2023-10-08T06:21:56;16.40;99.90
69533;DHT22;56729;52.036;5.332;2023-10-08T06:22:58;16.40;99.90
69533;DHT22;56729;52.036;5.332;2023-10-08T06:24:06;16.40;99.90
69533;DHT22;56729;52.036;5.332;2023-10-08T06:25:11;16.40;99.90
69533;DHT22;56729;52.036;5.332;2023-10-08T06:26:24;16.40;99.90
69533;DHT22;56729;52.036;5.332;2023-10-08T06:27:27;16.30;99.90
69533;DHT22;56729;52.036;5.332;2023-10-08T06:28:40;16.30;99.90
69533;DHT22;56729;52.036;5.332;2023-10-08T06:29:43;16.30;99.90
69533;DHT22;56729;52.036;5.332;2023-10-08T06:30:47;16.30;99.90
69533;DHT22;56729;52.036;5.332;2023-10-08T06:31:50;16.20;99.90
69533;DHT22;56729;52.036;5.332;2023-10-08T06:32:53;16.20;99.90
69533;DHT22;56729;52.036;5.332;2023-10-08T06:33:56;16.20;99.90
69533;DHT22;56729;52.036;5.332;2023-10-08T06:34:59;16.20;99.90
69533;DHT22;56729;52.036;5.332;2023-10-08T06:36:04;16.10;99.90
69533;DHT22;56729;52.036;5.332;2023-10-08T06:37:17;16.10;99.90
69533;DHT22;56729;52.036;5.332;2023-10-08T06:38:20;16.00;99.90
69533;DHT22;56729;52.036;5.332;2023-10-08T06:39:26;16.00;99.90
69533;DHT22;56729;52.036;5.332;2023-10-08T06:40:36;16.00;99.90
69533;DHT22;56729;52.036;5.332;2023-10-08T06:41:38;15.90;99.90
69533;DHT22;56729;52.036;5.332;2023-10-08T06:42:52;15.90;99.90
69533;DHT22;56729;52.036;5.332;2023-10-08T06:43:54;15.90;99.90
69533;DHT22;56729;52.036;5.332;2023-10-08T06:45:05;15.90;99.90
69533;DHT22;56729;52.036;5.332;2023-10-08T06:46:07;15.90;99.90
69533;DHT22;56729;52.036;5.332;2023-10-08T06:47:09;15.90;99.90
69533;DHT22;56729;52.036;5.332;2023-10-08T06:48:12;15.80;99.90
69533;DHT22;56729;52.036;5.332;2023-10-08T06:49:20;15.80;99.90
69533;DHT22;56729;52.036;5.332;2023-10-08T06:50:25;15.80;99.90
69533;DHT22;56729;52.036;5.332;2023-10-08T06:51:27;15.80;99.90
69533;DHT22;56729;52.036;5.332;2023-10-08T06:52:32;15.80;99.90
69533;DHT22;56729;52.036;5.332;2023-10-08T06:53:34;15.70;99.90
69533;DHT22;56729;52.036;5.332;2023-10-08T06:54:40;15.80;99.90
69533;DHT22;56729;52.036;5.332;2023-10-08T06:55:42;15.70;99.90
69533;DHT22;56729;52.036;5.332;2023-10-08T06:56:45;15.70;99.90
69533;DHT22;56729;52.036;5.332;2023-10-08T06:57:48;15.70;99.90
69533;DHT22;56729;52.036;5.332;2023-10-08T06:58:50;15.70;99.90
69533;DHT22;56729;52.036;5.332;2023-10-08T06:59:55;15.70;99.90
69533;DHT22;56729;52.036;5.332;2023-10-08T07:00:58;15.60;99.90
69533;DHT22;56729;52.036;5.332;2023-10-08T07:02:00;15.60;99.90
69533;DHT22;56729;52.036;5.332;2023-10-08T07:03:03;15.60;99.90
69533;DHT22;56729;52.036;5.332;2023-10-08T07:04:06;15.50;99.90
69533;DHT22;56729;52.036;5.332;2023-10-08T07:05:14;15.50;99.90
69533;DHT22;56729;52.036;5.332;2023-10-08T07:06:17;15.50;99.90